sensor_id;sensor_type;location;lat;lon;timestamp;pressure;altitude;pressure_sealevel;temperature;humidity
49825;BME280;35714;55.708;37.478;2023-04-29T00:01:30;99186.59;;;6.45;69.75
49825;BME280;35714;55.708;37.478;2023-04-29T00:03:56;99181.63;;;6.42;69.40
49825;BME280;35714;55.708;37.478;2023-04-29T00:06:22;99192.41;;;6.42;69.37
49825;BME280;35714;55.708;37.478;2023-04-29T00:08:48;99180.84;;;6.35;69.83
49825;BME280;35714;55.708;37.478;2023-04-29T00:11:14;99183.75;;;6.27;69.37
49825;BME280;35714;55.708;37.478;2023-04-29T00:13:40;99174.25;;;6.18;69.76
49825;BME280;35714;55.708;37.478;2023-04-29T00:16:07;99172.22;;;6.20;69.83
49825;BME280;35714;55.708;37.478;2023-04-29T00:18:35;99165.19;;;6.12;69.71
49825;BME280;35714;55.708;37.478;2023-04-29T00:21:02;99188.38;;;6.20;69.91
49825;BME280;35714;55.708;37.478;2023-04-29T00:23:32;99182.97;;;6.20;70.10
49825;BME280;35714;55.708;37.478;2023-04-29T00:25:57;99173.25;;;6.19;70.27
49825;BME280;35714;55.708;37.478;2023-04-29T00:28:23;99181.72;;;6.22;69.85
49825;BME280;35714;55.708;37.478;2023-04-29T00:30:49;99161.88;;;6.17;69.83
49825;BME280;35714;55.708;37.478;2023-04-29T00:33:15;99160.19;;;6.16;69.78
49825;BME280;35714;55.708;37.478;2023-04-29T00:35:41;99161.44;;;6.13;69.56
49825;BME280;35714;55.708;37.478;2023-04-29T00:38:07;99164.81;;;6.08;69.54
49825;BME280;35714;55.708;37.478;2023-04-29T00:40:33;99170.19;;;6.08;69.88
49825;BME280;35714;55.708;37.478;2023-04-29T00:42:58;99161.06;;;6.09;70.25
49825;BME280;35714;55.708;37.478;2023-04-29T00:45:24;99171.81;;;6.09;69.96
49825;BME280;35714;55.708;37.478;2023-04-29T00:47:50;99161.25;;;6.08;69.91
49825;BME280;35714;55.708;37.478;2023-04-29T00:50:16;99159.41;;;6.08;70.00
49825;BME280;35714;55.708;37.478;2023-04-29T00:52:43;99157.31;;;6.10;70.19
49825;BME280;35714;55.708;37.478;2023-04-29T00:55:10;99156.69;;;6.15;70.18
49825;BME280;35714;55.708;37.478;2023-04-29T00:57:39;99149.47;;;6.09;70.06
49825;BME280;35714;55.708;37.478;2023-04-29T01:00:06;99150.28;;;6.09;69.60
49825;BME280;35714;55.708;37.478;2023-04-29T01:02:34;99159.41;;;6.08;69.69
49825;BME280;35714;55.708;37.478;2023-04-29T01:05:00;99156.09;;;6.06;69.86
49825;BME280;35714;55.708;37.478;2023-04-29T01:07:36;99146.97;;;6.07;69.79
49825;BME280;35714;55.708;37.478;2023-04-29T01:10:27;99160.63;;;6.12;70.09
49825;BME280;35714;55.708;37.478;2023-04-29T01:13:29;99158.97;;;6.11;69.73
49825;BME280;35714;55.708;37.478;2023-04-29T01:16:03;99160.88;;;6.04;69.58
49825;BME280;35714;55.708;37.478;2023-04-29T01:18:40;99158.19;;;6.04;69.53
49825;BME280;35714;55.708;37.478;2023-04-29T01:21:09;99159.41;;;6.02;69.31
49825;BME280;35714;55.708;37.478;2023-04-29T01:23:34;99163.97;;;6.01;69.42
49825;BME280;35714;55.708;37.478;2023-04-29T01:26:00;99162.31;;;6.00;69.19
49825;BME280;35714;55.708;37.478;2023-04-29T01:28:52;99162.94;;;6.02;69.77
49825;BME280;35714;55.708;37.478;2023-04-29T01:33:57;99154.44;;;6.05;69.25
49825;BME280;35714;55.708;37.478;2023-04-29T01:36:46;99153.19;;;6.08;69.48
49825;BME280;35714;55.708;37.478;2023-04-29T01:45:17;99148.25;;;5.98;68.89
49825;BME280;35714;55.708;37.478;2023-04-29T01:47:45;99150.13;;;5.98;69.13
49825;BME280;35714;55.708;37.478;2023-04-29T01:50:12;99139.53;;;5.96;69.07
49825;BME280;35714;55.708;37.478;2023-04-29T01:52:38;99149.47;;;5.95;69.22
49825;BME280;35714;55.708;37.478;2023-04-29T01:55:04;99146.97;;;5.94;68.89
49825;BME280;35714;55.708;37.478;2023-04-29T01:57:39;99147.41;;;6.04;69.11
49825;BME280;35714;55.708;37.478;2023-04-29T02:00:16;99151.13;;;6.03;69.28
49825;BME280;35714;55.708;37.478;2023-04-29T02:02:48;99150.72;;;6.06;69.13
49825;BME280;35714;55.708;37.478;2023-04-29T02:05:23;99154.81;;;6.16;69.23
49825;BME280;35714;55.708;37.478;2023-04-29T02:07:54;99156.88;;;6.20;69.10
49825;BME280;35714;55.708;37.478;2023-04-29T02:10:20;99154.16;;;6.27;69.29
49825;BME280;35714;55.708;37.478;2023-04-29T02:12:48;99156.41;;;6.30;69.21
49825;BME280;35714;55.708;37.478;2023-04-29T02:15:35;99170.69;;;6.37;68.84
49825;BME280;35714;55.708;37.478;2023-04-29T02:18:00;99171.91;;;6.41;69.18
49825;BME280;35714;55.708;37.478;2023-04-29T02:20:26;99160.09;;;6.42;68.93
49825;BME280;35714;55.708;37.478;2023-04-29T02:22:52;99161.31;;;6.46;68.99
49825;BME280;35714;55.708;37.478;2023-04-29T02:25:19;99170.81;;;6.49;68.72
49825;BME280;35714;55.708;37.478;2023-04-29T02:27:47;99164.41;;;6.50;68.54
49825;BME280;35714;55.708;37.478;2023-04-29T02:30:12;99156.38;;;6.43;68.42
49825;BME280;35714;55.708;37.478;2023-04-29T02:32:39;99155.53;;;6.43;68.46
49825;BME280;35714;55.708;37.478;2023-04-29T02:35:05;99151.84;;;6.37;68.57
49825;BME280;35714;55.708;37.478;2023-04-29T02:37:31;99163.00;;;6.41;68.50
49825;BME280;35714;55.708;37.478;2023-04-29T02:39:57;99161.78;;;6.37;68.31
49825;BME280;35714;55.708;37.478;2023-04-29T02:42:23;99153.13;;;6.28;68.37
49825;BME280;35714;55.708;37.478;2023-04-29T02:44:49;99180.41;;;6.38;68.44
49825;BME280;35714;55.708;37.478;2023-04-29T02:47:15;99188.69;;;6.43;68.68
49825;BME280;35714;55.708;37.478;2023-04-29T02:49:40;99194.06;;;6.43;68.54
49825;BME280;35714;55.708;37.478;2023-04-29T02:52:06;99197.75;;;6.49;68.55
49825;BME280;35714;55.708;37.478;2023-04-29T02:54:33;99202.31;;;6.48;68.25
49825;BME280;35714;55.708;37.478;2023-04-29T02:56:59;99203.78;;;6.44;68.24
49825;BME280;35714;55.708;37.478;2023-04-29T02:59:25;99204.84;;;6.43;68.59
49825;BME280;35714;55.708;37.478;2023-04-29T03:01:51;99210.22;;;6.43;68.55
49825;BME280;35714;55.708;37.478;2023-04-29T03:04:18;99217.25;;;6.44;68.35
49825;BME280;35714;55.708;37.478;2023-04-29T03:06:44;99223.47;;;6.45;68.38
49825;BME280;35714;55.708;37.478;2023-04-29T03:09:11;99219.34;;;6.42;68.17
49825;BME280;35714;55.708;37.478;2023-04-29T03:11:38;99242.13;;;6.46;68.40
49825;BME280;35714;55.708;37.478;2023-04-29T03:14:04;99239.84;;;6.43;68.07
49825;BME280;35714;55.708;37.478;2023-04-29T03:16:30;99232.00;;;6.42;68.26
49825;BME280;35714;55.708;37.478;2023-04-29T03:18:56;99236.78;;;6.33;68.33
49825;BME280;35714;55.708;37.478;2023-04-29T03:21:23;99243.41;;;6.37;67.95
49825;BME280;35714;55.708;37.478;2023-04-29T03:23:51;99249.22;;;6.34;68.02
49825;BME280;35714;55.708;37.478;2023-04-29T03:26:23;99253.34;;;6.37;68.10
49825;BME280;35714;55.708;37.478;2023-04-29T03:28:49;99264.13;;;6.37;68.00
49825;BME280;35714;55.708;37.478;2023-04-29T03:31:15;99267.44;;;6.32;68.13
49825;BME280;35714;55.708;37.478;2023-04-29T03:33:42;99274.28;;;6.28;68.10
49825;BME280;35714;55.708;37.478;2023-04-29T03:36:08;99283.38;;;6.27;68.09
49825;BME280;35714;55.708;37.478;2023-04-29T03:38:45;99279.91;;;6.20;68.02
49825;BME280;35714;55.708;37.478;2023-04-29T03:41:11;99280.91;;;6.19;68.67
49825;BME280;35714;55.708;37.478;2023-04-29T03:43:36;99282.38;;;6.14;68.32
49825;BME280;35714;55.708;37.478;2023-04-29T03:46:02;99282.78;;;6.11;68.57
49825;BME280;35714;55.708;37.478;2023-04-29T03:48:28;99286.53;;;6.10;68.94
49825;BME280;35714;55.708;37.478;2023-04-29T03:50:54;99287.13;;;6.12;68.97
49825;BME280;35714;55.708;37.478;2023-04-29T03:53:20;99280.72;;;6.13;69.07
49825;BME280;35714;55.708;37.478;2023-04-29T03:55:46;99284.63;;;6.18;69.19
49825;BME280;35714;55.708;37.478;2023-04-29T03:58:14;99290.66;;;6.20;69.07
49825;BME280;35714;55.708;37.478;2023-04-29T04:00:41;99284.22;;;6.21;69.31
49825;BME280;35714;55.708;37.478;2023-04-29T04:03:13;99293.13;;;6.28;69.28
49825;BME280;35714;55.708;37.478;2023-04-29T04:05:38;99298.09;;;6.31;69.14
49825;BME280;35714;55.708;37.478;2023-04-29T04:08:10;99300.19;;;6.29;68.76
49825;BME280;35714;55.708;37.478;2023-04-29T04:10:43;99304.94;;;6.27;68.72
49825;BME280;35714;55.708;37.478;2023-04-29T04:13:20;99303.91;;;6.28;68.86
49825;BME280;35714;55.708;37.478;2023-04-29T04:15:50;99297.66;;;6.34;68.96
49825;BME280;35714;55.708;37.478;2023-04-29T04:18:16;99296.84;;;6.40;69.26
49825;BME280;35714;55.708;37.478;2023-04-29T04:20:43;99305.28;;;6.50;69.19
49825;BME280;35714;55.708;37.478;2023-04-29T04:23:09;99290.56;;;6.53;68.89
49825;BME280;35714;55.708;37.478;2023-04-29T04:25:35;99289.97;;;6.51;68.50
49825;BME280;35714;55.708;37.478;2023-04-29T04:28:30;99294.72;;;6.56;68.59
49825;BME280;35714;55.708;37.478;2023-04-29T04:31:00;99299.28;;;6.62;68.43
49825;BME280;35714;55.708;37.478;2023-04-29T04:33:27;99303.78;;;6.75;68.83
49825;BME280;35714;55.708;37.478;2023-04-29T04:35:53;99304.97;;;6.85;68.40
49825;BME280;35714;55.708;37.478;2023-04-29T04:38:20;99288.38;;;6.89;67.91
49825;BME280;35714;55.708;37.478;2023-04-29T04:40:47;99290.41;;;7.00;67.55
49825;BME280;35714;55.708;37.478;2023-04-29T04:43:26;99289.94;;;7.10;67.37
49825;BME280;35714;55.708;37.478;2023-04-29T04:45:52;99281.63;;;7.11;66.78
49825;BME280;35714;55.708;37.478;2023-04-29T04:48:18;99291.16;;;7.14;66.86
49825;BME280;35714;55.708;37.478;2023-04-29T04:50:48;99291.97;;;7.14;65.93
49825;BME280;35714;55.708;37.478;2023-04-29T04:53:14;99302.38;;;7.11;66.12
49825;BME280;35714;55.708;37.478;2023-04-29T04:55:53;99291.59;;;7.11;65.74
49825;BME280;35714;55.708;37.478;2023-04-29T04:58:19;99290.75;;;7.10;65.71
49825;BME280;35714;55.708;37.478;2023-04-29T05:00:46;99292.81;;;7.15;65.63
49825;BME280;35714;55.708;37.478;2023-04-29T05:03:12;99294.84;;;7.19;65.70
49825;BME280;35714;55.708;37.478;2023-04-29T05:05:38;99301.47;;;7.23;65.44
49825;BME280;35714;55.708;37.478;2023-04-29T05:08:04;99308.50;;;7.31;65.55
49825;BME280;35714;55.708;37.478;2023-04-29T05:10:43;99304.06;;;7.37;65.53
49825;BME280;35714;55.708;37.478;2023-04-29T05:13:09;99304.94;;;7.37;65.18
49825;BME280;35714;55.708;37.478;2023-04-29T05:15:35;99298.66;;;7.44;64.89
49825;BME280;35714;55.708;37.478;2023-04-29T05:18:03;99296.34;;;7.47;65.11
49825;BME280;35714;55.708;37.478;2023-04-29T05:20:29;99305.84;;;7.50;64.44
49825;BME280;35714;55.708;37.478;2023-04-29T05:22:56;99292.63;;;7.48;64.12
49825;BME280;35714;55.708;37.478;2023-04-29T05:25:23;99291.13;;;7.52;64.37
49825;BME280;35714;55.708;37.478;2023-04-29T05:27:49;99300.59;;;7.62;64.04
49825;BME280;35714;55.708;37.478;2023-04-29T05:30:18;99302.44;;;7.68;64.04
49825;BME280;35714;55.708;37.478;2023-04-29T05:32:45;99300.53;;;7.75;63.88
49825;BME280;35714;55.708;37.478;2023-04-29T05:35:14;99300.69;;;7.80;63.47
49825;BME280;35714;55.708;37.478;2023-04-29T05:37:40;99312.22;;;7.87;63.08
49825;BME280;35714;55.708;37.478;2023-04-29T05:40:19;99303.09;;;7.88;62.93
49825;BME280;35714;55.708;37.478;2023-04-29T05:42:47;99325.91;;;7.92;62.66
49825;BME280;35714;55.708;37.478;2023-04-29T05:45:13;99321.72;;;7.97;62.57
49825;BME280;35714;55.708;37.478;2023-04-29T05:47:39;99330.75;;;8.09;62.75
49825;BME280;35714;55.708;37.478;2023-04-29T05:50:06;99326.06;;;8.23;62.68
49825;BME280;35714;55.708;37.478;2023-04-29T05:52:32;99329.47;;;8.37;62.13
49825;BME280;35714;55.708;37.478;2023-04-29T05:54:58;99331.28;;;8.43;61.50
49825;BME280;35714;55.708;37.478;2023-04-29T05:57:24;99340.78;;;8.52;61.34
49825;BME280;35714;55.708;37.478;2023-04-29T05:59:52;99344.09;;;8.54;60.78
49825;BME280;35714;55.708;37.478;2023-04-29T06:02:22;99345.56;;;8.50;60.62
49825;BME280;35714;55.708;37.478;2023-04-29T06:04:48;99338.09;;;8.52;60.11
49825;BME280;35714;55.708;37.478;2023-04-29T06:07:20;99347.75;;;8.60;60.32
49825;BME280;35714;55.708;37.478;2023-04-29T06:09:49;99359.69;;;8.71;60.01
49825;BME280;35714;55.708;37.478;2023-04-29T06:12:15;99351.91;;;8.81;60.04
49825;BME280;35714;55.708;37.478;2023-04-29T06:14:44;99366.63;;;9.03;59.74
49825;BME280;35714;55.708;37.478;2023-04-29T06:17:10;99348.66;;;9.09;58.96
49825;BME280;35714;55.708;37.478;2023-04-29T06:19:37;99370.34;;;9.21;58.70
49825;BME280;35714;55.708;37.478;2023-04-29T06:22:03;99366.28;;;9.30;58.74
49825;BME280;35714;55.708;37.478;2023-04-29T06:24:30;99378.97;;;9.48;58.66
49825;BME280;35714;55.708;37.478;2023-04-29T06:26:56;99382.69;;;9.66;58.54
49825;BME280;35714;55.708;37.478;2023-04-29T06:29:24;99381.94;;;9.89;58.20
49825;BME280;35714;55.708;37.478;2023-04-29T06:31:51;99362.75;;;10.02;57.88
49825;BME280;35714;55.708;37.478;2023-04-29T06:34:18;99369.97;;;10.32;57.28
49825;BME280;35714;55.708;37.478;2023-04-29T06:37:07;99377.09;;;10.57;56.69
49825;BME280;35714;55.708;37.478;2023-04-29T06:39:55;99372.97;;;10.66;55.75
49825;BME280;35714;55.708;37.478;2023-04-29T06:42:53;99384.84;;;10.89;55.69
49825;BME280;35714;55.708;37.478;2023-04-29T06:45:37;99382.66;;;11.14;54.42
49825;BME280;35714;55.708;37.478;2023-04-29T06:48:15;99384.44;;;11.20;54.12
49825;BME280;35714;55.708;37.478;2023-04-29T06:50:52;99381.94;;;11.31;53.20
49825;BME280;35714;55.708;37.478;2023-04-29T06:53:18;99380.28;;;11.30;53.21
49825;BME280;35714;55.708;37.478;2023-04-29T06:55:44;99389.03;;;11.32;53.11
49825;BME280;35714;55.708;37.478;2023-04-29T06:58:14;99392.41;;;11.39;52.40
49825;BME280;35714;55.708;37.478;2023-04-29T07:00:46;99392.50;;;11.44;52.08
49825;BME280;35714;55.708;37.478;2023-04-29T07:03:14;99398.63;;;11.51;52.16
49825;BME280;35714;55.708;37.478;2023-04-29T07:05:40;99402.69;;;11.66;51.76
49825;BME280;35714;55.708;37.478;2023-04-29T07:08:07;99405.78;;;11.86;51.08
49825;BME280;35714;55.708;37.478;2023-04-29T07:10:34;99393.00;;;11.99;50.23
49825;BME280;35714;55.708;37.478;2023-04-29T07:13:00;99406.88;;;12.14;50.37
49825;BME280;35714;55.708;37.478;2023-04-29T07:15:27;99409.75;;;12.24;50.31
49825;BME280;35714;55.708;37.478;2023-04-29T07:17:53;99416.91;;;12.31;49.84
49825;BME280;35714;55.708;37.478;2023-04-29T07:20:19;99419.88;;;12.46;49.80
49825;BME280;35714;55.708;37.478;2023-04-29T07:22:45;99423.03;;;12.72;49.63
49825;BME280;35714;55.708;37.478;2023-04-29T07:25:12;99429.19;;;13.06;48.78
49825;BME280;35714;55.708;37.478;2023-04-29T07:27:39;99428.50;;;13.55;48.64
49825;BME280;35714;55.708;37.478;2023-04-29T07:30:06;99429.97;;;13.90;47.02
49825;BME280;35714;55.708;37.478;2023-04-29T07:32:32;99432.41;;;14.14;46.78
49825;BME280;35714;55.708;37.478;2023-04-29T07:35:02;99450.66;;;14.46;45.99
49825;BME280;35714;55.708;37.478;2023-04-29T07:37:31;99434.00;;;14.42;45.54
49825;BME280;35714;55.708;37.478;2023-04-29T07:39:57;99441.75;;;14.23;45.00
49825;BME280;35714;55.708;37.478;2023-04-29T07:42:23;99441.66;;;14.13;45.05
49825;BME280;35714;55.708;37.478;2023-04-29T07:44:49;99444.22;;;13.97;45.03
49825;BME280;35714;55.708;37.478;2023-04-29T07:47:15;99446.16;;;13.75;45.09
49825;BME280;35714;55.708;37.478;2023-04-29T07:49:41;99439.47;;;13.60;45.63
49825;BME280;35714;55.708;37.478;2023-04-29T07:52:07;99439.56;;;13.70;45.92
49825;BME280;35714;55.708;37.478;2023-04-29T07:54:35;99446.91;;;13.92;45.34
49825;BME280;35714;55.708;37.478;2023-04-29T07:57:02;99449.06;;;13.90;44.75
49825;BME280;35714;55.708;37.478;2023-04-29T07:59:31;99450.38;;;14.15;44.55
49825;BME280;35714;55.708;37.478;2023-04-29T08:01:57;99459.69;;;14.78;44.89
49825;BME280;35714;55.708;37.478;2023-04-29T08:04:23;99464.63;;;15.87;44.48
49825;BME280;35714;55.708;37.478;2023-04-29T08:06:58;99463.91;;;16.85;42.01
49825;BME280;35714;55.708;37.478;2023-04-29T08:09:24;99472.91;;;17.26;40.53
49825;BME280;35714;55.708;37.478;2023-04-29T08:11:49;99472.66;;;17.98;39.24
49825;BME280;35714;55.708;37.478;2023-04-29T08:14:15;99468.38;;;18.61;37.52
49825;BME280;35714;55.708;37.478;2023-04-29T08:16:41;99464.91;;;18.80;35.32
49825;BME280;35714;55.708;37.478;2023-04-29T08:19:07;99467.94;;;18.78;34.80
49825;BME280;35714;55.708;37.478;2023-04-29T08:21:32;99478.94;;;18.44;34.32
49825;BME280;35714;55.708;37.478;2023-04-29T08:23:59;99482.16;;;17.56;34.85
49825;BME280;35714;55.708;37.478;2023-04-29T08:26:25;99485.50;;;17.27;36.22
49825;BME280;35714;55.708;37.478;2023-04-29T08:28:52;99485.09;;;18.30;36.00
49825;BME280;35714;55.708;37.478;2023-04-29T08:31:19;99489.13;;;19.85;34.72
49825;BME280;35714;55.708;37.478;2023-04-29T08:33:45;99494.91;;;21.11;32.69
49825;BME280;35714;55.708;37.478;2023-04-29T08:36:12;99480.72;;;22.15;30.89
49825;BME280;35714;55.708;37.478;2023-04-29T08:38:38;99486.31;;;23.37;30.11
49825;BME280;35714;55.708;37.478;2023-04-29T08:41:06;99481.00;;;24.33;27.77
49825;BME280;35714;55.708;37.478;2023-04-29T08:43:34;99484.75;;;24.02;27.01
49825;BME280;35714;55.708;37.478;2023-04-29T08:46:02;99477.31;;;23.00;26.69
49825;BME280;35714;55.708;37.478;2023-04-29T08:48:29;99482.38;;;22.02;27.85
49825;BME280;35714;55.708;37.478;2023-04-29T08:50:55;99481.16;;;21.39;29.30
49825;BME280;35714;55.708;37.478;2023-04-29T08:53:23;99483.41;;;21.92;29.10
49825;BME280;35714;55.708;37.478;2023-04-29T08:55:49;99490.69;;;23.06;27.86
49825;BME280;35714;55.708;37.478;2023-04-29T08:58:15;99495.69;;;24.25;25.75
49825;BME280;35714;55.708;37.478;2023-04-29T09:00:42;99488.56;;;25.32;25.21
49825;BME280;35714;55.708;37.478;2023-04-29T09:05:52;99505.94;;;26.82;22.05
49825;BME280;35714;55.708;37.478;2023-04-29T09:08:23;99504.75;;;26.83;21.48
49825;BME280;35714;55.708;37.478;2023-04-29T09:10:50;99501.59;;;27.18;22.33
49825;BME280;35714;55.708;37.478;2023-04-29T09:13:31;99500.91;;;26.54;20.91
49825;BME280;35714;55.708;37.478;2023-04-29T09:15:57;99497.56;;;25.20;22.71
49825;BME280;35714;55.708;37.478;2023-04-29T09:18:49;99505.44;;;24.22;22.95
49825;BME280;35714;55.708;37.478;2023-04-29T09:21:23;99509.03;;;24.05;23.24
49825;BME280;35714;55.708;37.478;2023-04-29T09:23:52;99509.06;;;24.40;22.91
49825;BME280;35714;55.708;37.478;2023-04-29T09:26:18;99517.53;;;24.53;22.72
49825;BME280;35714;55.708;37.478;2023-04-29T09:28:45;99516.97;;;23.98;22.99
49825;BME280;35714;55.708;37.478;2023-04-29T09:31:13;99523.75;;;23.12;23.81
49825;BME280;35714;55.708;37.478;2023-04-29T09:33:50;99510.69;;;22.81;23.17
49825;BME280;35714;55.708;37.478;2023-04-29T09:36:38;99524.38;;;23.71;22.78
49825;BME280;35714;55.708;37.478;2023-04-29T09:39:09;99518.97;;;25.11;22.35
49825;BME280;35714;55.708;37.478;2023-04-29T09:44:06;99509.13;;;27.51;20.43
49825;BME280;35714;55.708;37.478;2023-04-29T09:46:33;99514.72;;;28.00;18.36
49825;BME280;35714;55.708;37.478;2023-04-29T09:48:59;99517.13;;;28.26;18.46
49825;BME280;35714;55.708;37.478;2023-04-29T09:51:25;99513.53;;;28.67;18.22
49825;BME280;35714;55.708;37.478;2023-04-29T09:53:51;99526.19;;;28.92;18.09
49825;BME280;35714;55.708;37.478;2023-04-29T09:56:17;99531.31;;;28.09;18.26
49825;BME280;35714;55.708;37.478;2023-04-29T09:58:42;99531.03;;;26.73;19.28
49825;BME280;35714;55.708;37.478;2023-04-29T10:01:09;99540.81;;;25.21;19.71
49825;BME280;35714;55.708;37.478;2023-04-29T10:03:38;99553.31;;;23.96;21.00
49825;BME280;35714;55.708;37.478;2023-04-29T10:06:07;99547.63;;;22.85;22.53
49825;BME280;35714;55.708;37.478;2023-04-29T10:08:33;99540.69;;;21.73;22.78
49825;BME280;35714;55.708;37.478;2023-04-29T10:11:01;99539.69;;;21.36;23.38
49825;BME280;35714;55.708;37.478;2023-04-29T10:13:28;99542.34;;;22.24;23.52
49825;BME280;35714;55.708;37.478;2023-04-29T10:18:53;99545.78;;;24.72;20.40
49825;BME280;35714;55.708;37.478;2023-04-29T10:21:28;99544.56;;;25.73;19.69
49825;BME280;35714;55.708;37.478;2023-04-29T10:23:59;99546.94;;;26.73;19.05
49825;BME280;35714;55.708;37.478;2023-04-29T10:26:28;99552.94;;;27.29;18.30
49825;BME280;35714;55.708;37.478;2023-04-29T10:28:58;99546.03;;;27.60;16.89
49825;BME280;35714;55.708;37.478;2023-04-29T10:31:28;99552.28;;;27.32;16.48
49825;BME280;35714;55.708;37.478;2023-04-29T10:33:57;99552.16;;;27.08;17.98
49825;BME280;35714;55.708;37.478;2023-04-29T10:36:27;99571.97;;;27.06;16.97
49825;BME280;35714;55.708;37.478;2023-04-29T10:39:00;99566.56;;;26.25;17.05
49825;BME280;35714;55.708;37.478;2023-04-29T10:41:30;99564.16;;;25.29;18.36
49825;BME280;35714;55.708;37.478;2023-04-29T10:43:58;99580.19;;;23.96;17.68
49825;BME280;35714;55.708;37.478;2023-04-29T10:46:25;99571.53;;;22.30;19.42
49825;BME280;35714;55.708;37.478;2023-04-29T10:49:01;99586.41;;;21.46;21.56
49825;BME280;35714;55.708;37.478;2023-04-29T10:51:29;99577.72;;;21.06;21.88
49825;BME280;35714;55.708;37.478;2023-04-29T10:54:06;99576.66;;;21.54;22.15
49825;BME280;35714;55.708;37.478;2023-04-29T10:56:57;99579.75;;;22.36;21.38
49825;BME280;35714;55.708;37.478;2023-04-29T11:02:09;99583.19;;;22.78;20.47
49825;BME280;35714;55.708;37.478;2023-04-29T11:05:07;99587.41;;;22.39;21.47
49825;BME280;35714;55.708;37.478;2023-04-29T11:07:34;99589.94;;;22.21;21.81
49825;BME280;35714;55.708;37.478;2023-04-29T11:10:03;99587.59;;;22.28;20.92
49825;BME280;35714;55.708;37.478;2023-04-29T11:12:30;99598.34;;;22.44;20.58
49825;BME280;35714;55.708;37.478;2023-04-29T11:14:57;99590.03;;;22.80;20.42
49825;BME280;35714;55.708;37.478;2023-04-29T11:17:35;99601.81;;;23.31;20.03
49825;BME280;35714;55.708;37.478;2023-04-29T11:20:10;99606.31;;;24.12;19.19
49825;BME280;35714;55.708;37.478;2023-04-29T11:22:37;99596.16;;;24.57;19.28
49825;BME280;35714;55.708;37.478;2023-04-29T11:25:07;99600.09;;;24.82;18.63
49825;BME280;35714;55.708;37.478;2023-04-29T11:27:36;99599.84;;;25.66;18.13
49825;BME280;35714;55.708;37.478;2023-04-29T11:30:03;99586.19;;;26.20;17.03
49825;BME280;35714;55.708;37.478;2023-04-29T11:32:38;99595.56;;;26.67;16.91
49825;BME280;35714;55.708;37.478;2023-04-29T11:35:11;99592.94;;;27.04;16.87
49825;BME280;35714;55.708;37.478;2023-04-29T11:37:38;99593.66;;;27.80;15.83
49825;BME280;35714;55.708;37.478;2023-04-29T11:40:05;99594.25;;;28.35;15.48
49825;BME280;35714;55.708;37.478;2023-04-29T11:42:40;99589.25;;;28.28;14.95
49825;BME280;35714;55.708;37.478;2023-04-29T11:45:06;99593.69;;;28.04;15.67
49825;BME280;35714;55.708;37.478;2023-04-29T11:47:32;99597.34;;;27.84;15.91
49825;BME280;35714;55.708;37.478;2023-04-29T11:50:06;99594.63;;;28.08;15.02
49825;BME280;35714;55.708;37.478;2023-04-29T11:52:36;99594.34;;;27.77;15.66
49825;BME280;35714;55.708;37.478;2023-04-29T11:55:03;99593.50;;;27.30;15.83
49825;BME280;35714;55.708;37.478;2023-04-29T11:57:30;99598.56;;;27.16;16.07
49825;BME280;35714;55.708;37.478;2023-04-29T11:59:57;99595.31;;;27.14;15.78
49825;BME280;35714;55.708;37.478;2023-04-29T12:02:33;99590.84;;;27.67;15.12
49825;BME280;35714;55.708;37.478;2023-04-29T12:05:02;99589.78;;;27.60;15.59
49825;BME280;35714;55.708;37.478;2023-04-29T12:07:30;99585.09;;;27.39;15.92
49825;BME280;35714;55.708;37.478;2023-04-29T12:09:56;99589.47;;;27.86;15.75
49825;BME280;35714;55.708;37.478;2023-04-29T12:12:22;99590.41;;;28.52;15.32
49825;BME280;35714;55.708;37.478;2023-04-29T12:14:49;99593.22;;;28.27;14.98
49825;BME280;35714;55.708;37.478;2023-04-29T12:17:15;99595.28;;;27.93;15.42
49825;BME280;35714;55.708;37.478;2023-04-29T12:19:42;99598.50;;;28.57;15.36
49825;BME280;35714;55.708;37.478;2023-04-29T12:22:08;99592.75;;;29.63;14.85
49825;BME280;35714;55.708;37.478;2023-04-29T12:24:35;99587.09;;;30.58;13.63
49825;BME280;35714;55.708;37.478;2023-04-29T12:27:01;99584.31;;;31.17;12.86
49825;BME280;35714;55.708;37.478;2023-04-29T12:29:27;99580.44;;;31.45;12.46
49825;BME280;35714;55.708;37.478;2023-04-29T12:31:55;99587.84;;;31.34;12.13
49825;BME280;35714;55.708;37.478;2023-04-29T12:34:25;99581.34;;;30.90;12.58
49825;BME280;35714;55.708;37.478;2023-04-29T12:36:53;99578.31;;;30.09;13.10
49825;BME280;35714;55.708;37.478;2023-04-29T12:39:19;99579.94;;;29.17;13.75
49825;BME280;35714;55.708;37.478;2023-04-29T12:41:45;99577.63;;;28.26;14.26
49825;BME280;35714;55.708;37.478;2023-04-29T12:44:11;99580.22;;;27.36;14.60
49825;BME280;35714;55.708;37.478;2023-04-29T12:46:39;99570.78;;;26.32;15.14
49825;BME280;35714;55.708;37.478;2023-04-29T12:49:05;99584.53;;;25.25;15.77
49825;BME280;35714;55.708;37.478;2023-04-29T12:51:32;99588.41;;;24.19;16.57
49825;BME280;35714;55.708;37.478;2023-04-29T12:54:00;99590.25;;;23.29;16.84
49825;BME280;35714;55.708;37.478;2023-04-29T12:56:26;99584.34;;;22.77;17.24
49825;BME280;35714;55.708;37.478;2023-04-29T12:58:52;99586.47;;;23.48;17.34
49825;BME280;35714;55.708;37.478;2023-04-29T13:01:18;99579.38;;;24.79;16.89
49825;BME280;35714;55.708;37.478;2023-04-29T13:03:43;99577.69;;;26.25;16.36
49825;BME280;35714;55.708;37.478;2023-04-29T13:06:09;99584.22;;;27.60;15.52
49825;BME280;35714;55.708;37.478;2023-04-29T13:08:34;99585.28;;;28.66;14.52
49825;BME280;35714;55.708;37.478;2023-04-29T13:11:00;99575.25;;;29.66;13.60
49825;BME280;35714;55.708;37.478;2023-04-29T13:13:26;99575.50;;;30.40;12.91
49825;BME280;35714;55.708;37.478;2023-04-29T13:15:52;99586.09;;;30.15;12.58
49825;BME280;35714;55.708;37.478;2023-04-29T13:18:17;99582.84;;;30.13;12.40
49825;BME280;35714;55.708;37.478;2023-04-29T13:20:43;99585.63;;;30.65;12.33
49825;BME280;35714;55.708;37.478;2023-04-29T13:23:09;99580.66;;;31.36;11.67